TimePDT,TemperatureF,Dew PointF,Humidity,Sea Level PressureIn,VisibilityMPH,Wind Direction,Wind SpeedMPH,Gust SpeedMPH,PrecipitationIn,Events,Conditions,WindDirDegrees,DateUTC
12:53 AM,57.0,42.1,57,30.12,10.0,Calm,Calm,-,N/A,,Clear,0,2013-10-06 07:53:00
1:53 AM,57.9,39.9,51,30.12,10.0,NE,3.5,-,N/A,,Clear,50,2013-10-06 08:53:00
2:53 AM,53.1,39.9,61,30.11,10.0,Calm,Calm,-,N/A,,Clear,0,2013-10-06 09:53:00
3:53 AM,51.1,39.0,63,30.09,10.0,NE,3.5,-,N/A,,Clear,50,2013-10-06 10:53:00
4:53 AM,53.1,39.0,59,30.09,10.0,NE,3.5,-,N/A,,Clear,40,2013-10-06 11:53:00
5:53 AM,50.0,42.1,74,30.09,10.0,NE,3.5,-,N/A,,Clear,40,2013-10-06 12:53:00
6:53 AM,48.0,37.0,66,30.10,10.0,ENE,3.5,-,N/A,,Scattered Clouds,60,2013-10-06 13:53:00
7:53 AM,54.0,41.0,62,30.11,10.0,Calm,Calm,-,N/A,,Scattered Clouds,0,2013-10-06 14:53:00
8:53 AM,62.1,42.1,48,30.12,10.0,NNE,3.5,-,N/A,,Scattered Clouds,20,2013-10-06 15:53:00
9:53 AM,64.9,44.1,47,30.12,10.0,West,4.6,-,N/A,,Scattered Clouds,270,2013-10-06 16:53:00
10:53 AM,69.1,46.9,45,30.12,10.0,West,5.8,-,N/A,,Mostly Cloudy,270,2013-10-06 17:53:00
11:53 AM,68.0,43.0,40,30.10,10.0,West,8.1,-,N/A,,Mostly Cloudy,280,2013-10-06 18:53:00
12:53 PM,72.0,45.0,38,30.09,10.0,WNW,6.9,-,N/A,,Mostly Cloudy,290,2013-10-06 19:53:00
1:53 PM,78.1,43.0,29,30.06,10.0,West,9.2,-,N/A,,Mostly Cloudy,280,2013-10-06 20:53:00
2:53 PM,79.0,41.0,26,30.04,10.0,WNW,10.4,-,N/A,,Mostly Cloudy,300,2013-10-06 21:53:00
3:53 PM,84.0,32.0,15,30.03,10.0,WNW,9.2,-,N/A,,Mostly Cloudy,300,2013-10-06 22:53:00
4:53 PM,81.0,39.0,22,30.02,10.0,NW,10.4,-,N/A,,Mostly Cloudy,310,2013-10-06 23:53:00
5:53 PM,73.9,44.1,34,30.01,10.0,NW,9.2,-,N/A,,Mostly Cloudy,310,2013-10-07 00:53:00
6:53 PM,71.1,43.0,36,30.02,10.0,NW,8.1,-,N/A,,Mostly Cloudy,310,2013-10-07 01:53:00
7:53 PM,69.1,39.9,35,30.02,10.0,Calm,Calm,-,N/A,,Mostly Cloudy,0,2013-10-07 02:53:00
8:53 PM,66.9,37.0,33,30.01,10.0,North,4.6,-,N/A,,Mostly Cloudy,360,2013-10-07 03:53:00
9:53 PM,66.9,34.0,30,30.02,10.0,NNW,3.5,-,N/A,,Scattered Clouds,340,2013-10-07 04:53:00
10:53 PM,63.0,35.1,35,30.01,10.0,Calm,Calm,-,N/A,,Scattered Clouds,0,2013-10-07 05:53:00
11:53 PM,63.0,39.9,43,30.00,10.0,Calm,Calm,-,N/A,,Scattered Clouds,0,2013-10-07 06:53:00